Time;durP1;ratioP1;P1;durP2;ratioP2;P2;SDS_P1;SDS_P2;PMS_P1;PMS_P2;Temp;Humidity;BMP_temperature;BMP_pressure;BME280_temperature;BME280_humidity;BME280_pressure;Samples;Min_cycle;Max_cycle;Signal;HPM_P1;HPM_P2
2022/09/05 00:02:00;;;;;;;6.18;4.10;;;17.30;90.50;;;;;;5046276;28;20041;-61
2022/09/05 00:04:49;;;;;;;5.13;4.57;;;17.30;90.70;;;;;;5023582;28;20049;-61
2022/09/05 00:07:27;;;;;;;7.53;4.75;;;17.30;90.90;;;;;;5037442;28;20029;-60
2022/09/05 00:10:30;;;;;;;8.25;4.93;;;17.30;90.80;;;;;;5037497;28;20092;-60
2022/09/05 00:12:58;;;;;;;5.13;4.47;;;17.30;90.90;;;;;;5043004;28;21600;-60
2022/09/05 00:15:57;;;;;;;5.00;4.50;;;17.30;90.70;;;;;;5021271;28;20163;-60
2022/09/05 00:18:42;;;;;;;5.90;4.63;;;17.30;90.90;;;;;;5034930;28;20403;-60
2022/09/05 00:21:13;;;;;;;7.00;4.78;;;17.20;91.00;;;;;;5038036;28;20033;-60
2022/09/05 00:24:07;;;;;;;7.70;5.07;;;17.20;91.20;;;;;;5041695;28;20040;-60
2022/09/05 00:27:01;;;;;;;6.20;4.63;;;17.10;91.30;;;;;;5042008;28;20077;-60
2022/09/05 00:29:46;;;;;;;6.60;4.47;;;17.10;91.50;;;;;;5040779;28;20040;-60
2022/09/05 00:32:30;;;;;;;5.05;4.55;;;17.00;91.60;;;;;;5032322;28;20056;-60
2022/09/05 00:35:14;;;;;;;5.75;5.22;;;17.10;91.50;;;;;;5038501;28;20053;-60
2022/09/05 00:37:46;;;;;;;6.25;5.15;;;17.10;91.60;;;;;;5038624;28;20094;-59
2022/09/05 00:40:24;;;;;;;6.15;5.20;;;17.00;91.60;;;;;;5038029;28;20392;-60
2022/09/05 00:42:54;;;;;;;6.60;4.88;;;17.00;91.70;;;;;;5048223;28;20841;-60
2022/09/05 00:45:44;;;;;;;5.95;5.28;;;16.90;91.80;;;;;;5029090;28;20050;-59
2022/09/05 00:48:19;;;;;;;8.93;5.10;;;16.90;92.00;;;;;;5042652;28;20201;-60
2022/09/05 00:51:11;;;;;;;8.95;5.20;;;17.00;92.00;;;;;;5042391;28;20049;-60
2022/09/05 00:53:56;;;;;;;5.78;5.15;;;16.90;92.10;;;;;;5040390;28;22845;-60
2022/09/05 00:56:33;;;;;;;6.93;5.32;;;16.90;92.10;;;;;;5039799;28;20040;-60
2022/09/05 00:59:44;;;;;;;7.00;5.32;;;16.90;92.40;;;;;;5037316;28;20037;-60
2022/09/05 01:02:15;;;;;;;6.22;5.63;;;16.90;92.40;;;;;;5035631;28;20045;-60
2022/09/05 01:05:03;;;;;;;6.75;5.13;;;16.80;92.30;;;;;;5039273;28;20182;-60
2022/09/05 01:08:16;;;;;;;6.40;5.75;;;16.80;92.90;;;;;;5039800;28;20056;-60
2022/09/05 01:10:48;;;;;;;6.07;5.20;;;16.80;92.80;;;;;;5005918;28;1042728;-60
2022/09/05 01:13:43;;;;;;;6.95;5.35;;;16.80;92.70;;;;;;5042836;28;20036;-60
2022/09/05 01:16:18;;;;;;;7.30;5.78;;;16.80;92.90;;;;;;5038273;28;20384;-60
2022/09/05 01:18:56;;;;;;;6.53;5.57;;;16.80;92.90;;;;;;5044640;28;20036;-60
2022/09/05 01:21:30;;;;;;;6.72;5.72;;;16.70;92.90;;;;;;5042288;28;20041;-60
2022/09/05 01:24:02;;;;;;;6.28;5.60;;;16.70;92.90;;;;;;5037421;28;20128;-60
2022/09/05 01:26:57;;;;;;;6.30;5.70;;;16.60;93.10;;;;;;5044348;28;20362;-61
2022/09/05 01:29:43;;;;;;;7.47;5.63;;;16.60;93.50;;;;;;5042001;28;20045;-61
2022/09/05 01:32:33;;;;;;;7.10;6.28;;;16.50;93.60;;;;;;5042518;28;20033;-61
2022/09/05 01:35:24;;;;;;;7.05;6.25;;;16.40;93.70;;;;;;5037852;28;20067;-61
2022/09/05 01:38:13;;;;;;;6.60;5.90;;;16.40;94.10;;;;;;5039904;28;20127;-61
2022/09/05 01:40:50;;;;;;;8.30;5.95;;;16.30;94.10;;;;;;5041505;28;20025;-61
2022/09/05 01:43:24;;;;;;;6.47;5.65;;;16.20;94.30;;;;;;5044457;28;20072;-61
2022/09/05 01:45:58;;;;;;;6.65;5.82;;;16.20;94.40;;;;;;5041436;28;20032;-61
2022/09/05 01:48:53;;;;;;;9.07;6.13;;;16.20;94.40;;;;;;5045765;28;20045;-61
2022/09/05 01:51:31;;;;;;;7.68;6.40;;;16.20;94.80;;;;;;5039031;28;20052;-61
2022/09/05 01:54:38;;;;;;;6.80;6.10;;;16.10;94.70;;;;;;5043735;28;20065;-61
2022/09/05 01:57:37;;;;;;;7.88;6.18;;;16.20;95.00;;;;;;5039161;28;20549;-61
2022/09/05 02:00:06;;;;;;;10.60;6.57;;;16.10;95.00;;;;;;5028726;28;20060;-61
2022/09/05 02:02:56;;;;;;;7.90;6.15;;;16.10;94.90;;;;;;5041213;28;20155;-61
2022/09/05 02:05:32;;;;;;;6.85;6.15;;;16.00;95.20;;;;;;5044610;28;20040;-61
2022/09/05 02:08:15;;;;;;;10.95;6.45;;;16.00;95.10;;;;;;5047582;28;20061;-61
2022/09/05 02:11:05;;;;;;;7.35;6.25;;;16.00;95.40;;;;;;5044984;28;20109;-61
2022/09/05 02:13:33;;;;;;;8.80;7.22;;;15.90;95.60;;;;;;5043847;28;20041;-61
2022/09/05 02:16:17;;;;;;;9.65;6.65;;;15.90;95.50;;;;;;5041374;28;20499;-61
2022/09/05 02:19:02;;;;;;;7.18;6.00;;;15.80;95.80;;;;;;5044838;28;20099;-61
2022/09/05 02:21:36;;;;;;;7.93;6.68;;;15.70;95.80;;;;;;5041255;28;20040;-61
2022/09/05 02:24:05;;;;;;;7.75;6.70;;;15.80;96.10;;;;;;5042943;28;20435;-61
2022/09/05 02:27:08;;;;;;;8.20;6.07;;;15.70;96.10;;;;;;5046410;28;20044;-61
2022/09/05 02:30:07;;;;;;;9.65;7.35;;;15.70;96.40;;;;;;5013061;28;20048;-61
2022/09/05 02:32:35;;;;;;;9.05;6.85;;;15.60;96.30;;;;;;5044769;28;20072;-61
2022/09/05 02:35:10;;;;;;;6.93;6.25;;;15.50;96.40;;;;;;5044485;28;20049;-61
2022/09/05 02:37:46;;;;;;;7.50;6.60;;;15.50;96.50;;;;;;5038278;28;20048;-61
2022/09/05 02:40:19;;;;;;;8.00;7.20;;;15.50;96.80;;;;;;5042890;28;20049;-61
2022/09/05 02:42:57;;;;;;;7.57;6.85;;;15.50;96.80;;;;;;5046498;28;20044;-61
2022/09/05 02:45:32;;;;;;;8.07;7.00;;;15.40;97.00;;;;;;5045055;28;20464;-61
2022/09/05 02:48:17;;;;;;;8.80;7.30;;;15.40;97.20;;;;;;5044137;28;20044;-61
2022/09/05 02:51:07;;;;;;;9.18;7.25;;;15.40;97.20;;;;;;5039917;28;20033;-61
2022/09/05 02:53:36;;;;;;;8.40;7.45;;;15.30;97.20;;;;;;5039882;28;20047;-61
2022/09/05 02:56:05;;;;;;;10.35;7.47;;;15.20;97.40;;;;;;5051348;28;20120;-61
2022/09/05 02:59:01;;;;;;;10.05;7.68;;;15.20;97.60;;;;;;5045756;28;20541;-61
2022/09/05 03:01:43;;;;;;;8.40;7.50;;;15.10;98.00;;;;;;5042687;28;20048;-60
2022/09/05 03:04:43;;;;;;;9.18;7.65;;;15.10;98.10;;;;;;5046223;28;20060;-61
2022/09/05 03:07:40;;;;;;;8.07;6.90;;;15.00;98.30;;;;;;5043454;28;20040;-61
2022/09/05 03:10:20;;;;;;;9.75;7.75;;;15.00;98.40;;;;;;5044383;28;20373;-60
2022/09/05 03:13:13;;;;;;;8.63;7.60;;;14.90;98.40;;;;;;5044712;28;20053;-60
2022/09/05 03:16:39;;;;;;;8.85;8.02;;;14.90;98.50;;;;;;5041623;28;20068;-61
2022/09/05 03:19:42;;;;;;;10.88;7.85;;;14.90;98.70;;;;;;5019670;28;20143;-61
2022/09/05 03:22:51;;;;;;;10.25;8.13;;;14.80;98.80;;;;;;5042694;28;20127;-61
2022/09/05 03:25:35;;;;;;;10.07;7.63;;;14.70;98.80;;;;;;5045628;28;20029;-61
2022/09/05 03:28:23;;;;;;;9.05;7.88;;;14.70;98.90;;;;;;5048090;28;20447;-61
2022/09/05 03:31:23;;;;;;;9.25;8.15;;;14.70;99.10;;;;;;5040512;28;20429;-61
2022/09/05 03:34:35;;;;;;;9.85;8.85;;;14.70;99.10;;;;;;5041733;28;20480;-61
2022/09/05 03:37:22;;;;;;;9.82;8.05;;;14.60;99.20;;;;;;5039133;28;20136;-61
2022/09/05 03:40:08;;;;;;;9.32;8.32;;;14.60;99.40;;;;;;5040821;28;20068;-61
2022/09/05 03:42:45;;;;;;;9.35;8.45;;;14.60;99.40;;;;;;5027519;28;20081;-61
2022/09/05 03:45:30;;;;;;;11.23;9.10;;;14.50;99.40;;;;;;5041458;28;20044;-61
2022/09/05 03:48:40;;;;;;;9.27;8.13;;;14.50;99.70;;;;;;5039789;28;20051;-61
2022/09/05 03:51:24;;;;;;;9.90;8.10;;;14.50;99.90;;;;;;5025878;28;20072;-61
2022/09/05 03:54:01;;;;;;;12.13;8.68;;;14.50;99.90;;;;;;5041816;28;20128;-60
2022/09/05 03:56:33;;;;;;;9.77;8.05;;;14.40;99.90;;;;;;5042336;28;20392;-61
2022/09/05 03:59:29;;;;;;;12.27;8.60;;;14.50;99.90;;;;;;5042368;28;20122;-61
2022/09/05 04:02:06;;;;;;;10.13;8.95;;;14.40;99.90;;;;;;5044361;28;20396;-61
2022/09/05 04:04:37;;;;;;;13.70;8.60;;;14.40;99.90;;;;;;5042298;28;20123;-60
2022/09/05 04:07:07;;;;;;;10.45;8.38;;;14.40;99.90;;;;;;5044787;28;20524;-61
2022/09/05 04:09:39;;;;;;;13.30;8.65;;;14.30;99.90;;;;;;5049314;28;20052;-61
2022/09/05 04:12:16;;;;;;;11.13;8.90;;;14.30;99.90;;;;;;5042783;28;20040;-61
2022/09/05 04:15:05;;;;;;;9.98;8.45;;;14.30;99.90;;;;;;5045125;28;20033;-60
2022/09/05 04:17:44;;;;;;;10.30;8.75;;;14.30;99.90;;;;;;5043319;28;20181;-61
2022/09/05 04:20:21;;;;;;;10.57;9.35;;;14.30;99.90;;;;;;5039851;28;20545;-60
2022/09/05 04:23:11;;;;;;;11.02;8.45;;;14.30;99.90;;;;;;5045175;28;20538;-61
2022/09/05 04:25:52;;;;;;;10.25;8.95;;;14.30;99.90;;;;;;5034870;28;20041;-60
2022/09/05 04:28:37;;;;;;;10.95;8.50;;;14.30;99.90;;;;;;5043489;28;20049;-61
2022/09/05 04:31:28;;;;;;;9.20;8.07;;;14.20;99.90;;;;;;5043237;28;20060;-61
2022/09/05 04:34:06;;;;;;;11.32;8.93;;;14.20;99.90;;;;;;5041562;28;20377;-61
2022/09/05 04:36:35;;;;;;;11.35;8.77;;;14.20;99.90;;;;;;5037211;28;20036;-61
2022/09/05 04:39:18;;;;;;;9.95;8.90;;;14.20;99.90;;;;;;5044016;28;20798;-60
2022/09/05 04:42:04;;;;;;;10.80;9.10;;;14.20;99.90;;;;;;5042986;28;20915;-60
2022/09/05 04:44:44;;;;;;;12.27;9.70;;;14.10;99.90;;;;;;5041231;28;20044;-60
2022/09/05 04:47:36;;;;;;;10.10;9.00;;;14.10;99.90;;;;;;5043983;28;20095;-60
2022/09/05 04:50:12;;;;;;;12.25;10.20;;;14.10;99.90;;;;;;5030034;28;20049;-60
2022/09/05 04:53:07;;;;;;;12.52;9.73;;;14.10;99.90;;;;;;5046826;28;20122;-61
2022/09/05 04:55:41;;;;;;;13.38;9.48;;;14.10;99.90;;;;;;5039790;28;20112;-60
2022/09/05 04:58:35;;;;;;;11.70;9.52;;;14.00;99.90;;;;;;5044366;28;20511;-60
2022/09/05 05:01:22;;;;;;;12.80;8.93;;;14.00;99.90;;;;;;5044236;28;20139;-60
2022/09/05 05:03:48;;;;;;;10.45;9.40;;;14.00;99.90;;;;;;5044050;28;20037;-60
2022/09/05 05:06:38;;;;;;;11.93;10.48;;;14.00;99.90;;;;;;5038085;28;20477;-60
2022/09/05 05:09:26;;;;;;;10.73;9.63;;;14.00;99.90;;;;;;5040679;28;20071;-60
2022/09/05 05:12:23;;;;;;;11.90;9.48;;;14.00;99.90;;;;;;5043992;28;20123;-60
2022/09/05 05:15:01;;;;;;;11.75;10.18;;;13.90;99.90;;;;;;5044893;28;20111;-61
2022/09/05 05:18:00;;;;;;;11.80;10.55;;;13.90;99.90;;;;;;5038823;28;20119;-60
2022/09/05 05:20:31;;;;;;;12.27;9.65;;;14.00;99.90;;;;;;5043526;28;20037;-60
2022/09/05 05:23:03;;;;;;;12.60;9.13;;;14.00;99.90;;;;;;5045841;28;20041;-60
2022/09/05 05:25:43;;;;;;;12.55;9.85;;;14.00;99.90;;;;;;5042565;28;20033;-60
2022/09/05 05:28:13;;;;;;;10.15;9.15;;;13.90;99.90;;;;;;5037464;28;20045;-60
2022/09/05 05:30:39;;;;;;;13.73;9.70;;;14.00;99.90;;;;;;5041887;28;20033;-60
2022/09/05 05:33:23;;;;;;;11.38;10.05;;;14.00;99.90;;;;;;5039491;28;20052;-60
2022/09/05 05:35:50;;;;;;;12.60;10.43;;;14.00;99.90;;;;;;5037869;28;20128;-60
2022/09/05 05:38:15;;;;;;;11.73;10.15;;;14.10;99.90;;;;;;5042702;28;20048;-60
2022/09/05 05:40:50;;;;;;;13.48;9.55;;;14.10;99.90;;;;;;5038487;28;20045;-60
2022/09/05 05:43:34;;;;;;;10.35;9.30;;;14.10;99.90;;;;;;5046571;28;20068;-60
2022/09/05 05:46:00;;;;;;;11.07;9.73;;;14.10;99.90;;;;;;5046011;28;20033;-60
2022/09/05 05:48:40;;;;;;;13.38;10.18;;;14.20;99.90;;;;;;5047793;28;20364;-60
2022/09/05 05:51:24;;;;;;;12.48;10.32;;;14.20;99.90;;;;;;5036905;28;20060;-60
2022/09/05 05:54:09;;;;;;;12.50;9.23;;;14.20;99.90;;;;;;5045455;28;20044;-60
2022/09/05 05:57:06;;;;;;;14.35;10.98;;;14.20;99.90;;;;;;5040046;28;20036;-60
2022/09/05 05:59:50;;;;;;;12.35;10.45;;;14.30;99.90;;;;;;5034210;28;20586;-60
2022/09/05 06:02:46;;;;;;;14.15;10.15;;;14.30;99.90;;;;;;5040978;28;20815;-60
2022/09/05 06:05:29;;;;;;;12.88;10.70;;;14.30;99.90;;;;;;5039501;28;20476;-60
2022/09/05 06:08:33;;;;;;;11.38;10.18;;;14.40;99.90;;;;;;5036699;28;20090;-61
2022/09/05 06:11:33;;;;;;;12.75;10.25;;;14.50;99.90;;;;;;5037793;28;20067;-60
2022/09/05 06:14:37;;;;;;;11.25;9.98;;;14.70;99.90;;;;;;5038251;28;20033;-60
2022/09/05 06:17:22;;;;;;;11.40;9.90;;;14.80;99.90;;;;;;5026103;28;20091;-60
2022/09/05 06:20:26;;;;;;;12.73;10.38;;;15.00;99.90;;;;;;5038022;28;20373;-61
2022/09/05 06:23:35;;;;;;;12.25;10.93;;;15.20;99.90;;;;;;5044997;28;20951;-60
2022/09/05 06:26:13;;;;;;;12.52;10.40;;;15.40;99.90;;;;;;5046604;28;20052;-61
2022/09/05 06:29:12;;;;;;;11.80;10.57;;;15.60;99.90;;;;;;5043723;28;20128;-60
2022/09/05 06:31:51;;;;;;;10.18;9.23;;;15.90;99.90;;;;;;5043088;28;21053;-60
2022/09/05 06:34:42;;;;;;;12.10;10.50;;;16.10;99.90;;;;;;5041773;28;20033;-61
2022/09/05 06:37:26;;;;;;;12.85;10.20;;;16.50;99.90;;;;;;5040941;28;20041;-61
2022/09/05 06:40:11;;;;;;;11.15;9.80;;;16.80;99.90;;;;;;5037269;28;20483;-61
2022/09/05 06:43:08;;;;;;;11.20;10.05;;;17.00;99.60;;;;;;5041083;28;20392;-61
2022/09/05 06:45:44;;;;;;;12.13;10.27;;;17.30;98.50;;;;;;5040560;28;20037;-62
2022/09/05 06:48:22;;;;;;;14.50;10.35;;;17.60;99.00;;;;;;5035525;28;20061;-61
2022/09/05 06:51:26;;;;;;;13.20;10.50;;;17.90;97.70;;;;;;5040006;28;20083;-61
2022/09/05 06:54:17;;;;;;;10.98;9.43;;;18.20;96.40;;;;;;5041313;28;20041;-62
2022/09/05 06:57:23;;;;;;;13.73;9.52;;;18.50;95.50;;;;;;5048551;28;20040;-61
2022/09/05 07:00:10;;;;;;;10.40;9.40;;;18.80;94.40;;;;;;5037399;28;20124;-62
2022/09/05 07:03:10;;;;;;;10.40;9.40;;;19.10;94.80;;;;;;5042513;28;21007;-62
2022/09/05 07:05:52;;;;;;;10.73;9.60;;;19.40;94.00;;;;;;5044347;28;20087;-63
2022/09/05 07:08:31;;;;;;;11.38;8.77;;;19.50;94.00;;;;;;5037361;28;20499;-63
2022/09/05 07:10:58;;;;;;;14.23;8.68;;;20.00;93.20;;;;;;5043290;28;20508;-63
2022/09/05 07:13:55;;;;;;;11.88;9.43;;;20.20;93.60;;;;;;5042181;28;20053;-62
2022/09/05 07:16:46;;;;;;;10.48;8.68;;;20.30;90.90;;;;;;5011171;28;20040;-62
2022/09/05 07:19:29;;;;;;;;;;;20.60;91.40;;;;;;5041966;28;20111;-63
2022/09/05 07:22:13;;;;;;;13.65;8.20;;;20.80;89.90;;;;;;5038171;28;19925;-63
2022/09/05 07:24:46;;;;;;;9.30;7.95;;;21.10;89.40;;;;;;5043171;28;20033;-63
2022/09/05 07:27:43;;;;;;;12.73;8.32;;;21.30;90.60;;;;;;5042370;28;20043;-62
2022/09/05 07:30:10;;;;;;;8.32;7.45;;;21.30;90.00;;;;;;5036146;28;20045;-63
2022/09/05 07:32:47;;;;;;;9.15;7.95;;;21.50;89.90;;;;;;5043744;28;20080;-63
2022/09/05 07:35:30;;;;;;;12.02;7.60;;;21.70;86.10;;;;;;5045839;28;20114;-64
2022/09/05 07:38:14;;;;;;;8.65;7.68;;;21.90;84.50;;;;;;5042503;28;20434;-64
2022/09/05 07:41:05;;;;;;;9.45;8.15;;;22.20;83.70;;;;;;5046689;28;20460;-65
2022/09/05 07:43:38;;;;;;;8.43;7.30;;;22.30;83.90;;;;;;4999518;28;20061;-63
2022/09/05 07:46:14;;;;;;;9.35;7.60;;;22.60;84.00;;;;;;5040504;28;20116;-65
2022/09/05 07:48:47;;;;;;;9.52;7.18;;;22.90;81.70;;;;;;5048608;28;20099;-64
2022/09/05 07:51:24;;;;;;;7.95;7.03;;;23.10;79.10;;;;;;5041389;28;20056;-64
2022/09/05 07:54:00;;;;;;;11.95;7.13;;;23.10;77.70;;;;;;5044160;28;20073;-64
2022/09/05 07:56:56;;;;;;;8.02;6.95;;;23.10;78.40;;;;;;5041012;28;20049;-64
2022/09/05 07:59:25;;;;;;;7.55;5.95;;;23.20;75.30;;;;;;5049249;28;20044;-64
2022/09/05 08:01:53;;;;;;;7.30;6.63;;;23.40;76.70;;;;;;5044980;28;20558;-65
2022/09/05 08:04:30;;;;;;;8.82;7.18;;;23.60;76.20;;;;;;5046029;28;20037;-63
2022/09/05 08:07:18;;;;;;;8.15;6.72;;;23.60;73.90;;;;;;5048671;28;20040;-64
2022/09/05 08:09:56;;;;;;;7.72;6.80;;;23.60;74.10;;;;;;5046813;28;20049;-65
2022/09/05 08:12:27;;;;;;;10.52;5.85;;;23.60;73.10;;;;;;5049129;28;20089;-64
2022/09/05 08:15:06;;;;;;;8.68;7.75;;;23.50;74.00;;;;;;5048995;28;20112;-64
2022/09/05 08:17:48;;;;;;;10.32;6.75;;;23.40;72.60;;;;;;5048767;28;20052;-64
2022/09/05 08:20:29;;;;;;;9.25;6.80;;;23.30;73.20;;;;;;5041827;28;20122;-64
2022/09/05 08:23:07;;;;;;;9.60;7.15;;;23.40;73.50;;;;;;5042304;28;20045;-65
2022/09/05 08:25:39;;;;;;;10.20;7.72;;;23.50;72.90;;;;;;5043670;28;20076;-64
2022/09/05 08:28:31;;;;;;;7.85;7.07;;;23.50;72.80;;;;;;5044813;28;20059;-64
2022/09/05 08:31:10;;;;;;;10.27;6.40;;;23.60;73.20;;;;;;5044458;28;20532;-64
2022/09/05 08:33:36;;;;;;;8.90;6.28;;;23.80;72.40;;;;;;5046946;28;20036;-64
2022/09/05 08:36:12;;;;;;;8.20;6.40;;;24.10;71.10;;;;;;5045260;28;20044;-65
2022/09/05 08:38:42;;;;;;;8.75;5.80;;;24.50;69.90;;;;;;5045224;28;20045;-64
2022/09/05 08:41:07;;;;;;;9.98;6.07;;;24.90;68.70;;;;;;5042263;28;20477;-65
2022/09/05 08:43:46;;;;;;;9.05;6.93;;;25.50;67.10;;;;;;5048995;28;20044;-64
2022/09/05 08:46:31;;;;;;;8.93;6.22;;;25.80;65.90;;;;;;5044445;28;20119;-64
2022/09/05 08:49:26;;;;;;;9.48;6.00;;;26.10;65.00;;;;;;5042362;28;20048;-64
2022/09/05 08:52:01;;;;;;;7.50;6.35;;;26.60;64.60;;;;;;5041626;28;20045;-64
2022/09/05 08:54:36;;;;;;;6.20;5.35;;;26.80;63.90;;;;;;5040922;28;20041;-64
2022/09/05 08:57:36;;;;;;;8.13;5.93;;;27.20;62.80;;;;;;5040967;28;20620;-65
2022/09/05 09:00:06;;;;;;;;;;;27.40;61.40;;;;;;5045068;28;20044;-65
2022/09/05 09:02:43;;;;;;;10.02;6.18;;;27.00;60.90;;;;;;5046241;28;19963;-64
2022/09/05 09:05:18;;;;;;;6.50;5.53;;;26.70;63.40;;;;;;5039272;28;20064;-63
2022/09/05 09:07:56;;;;;;;10.82;6.15;;;26.50;62.30;;;;;;5045031;28;20033;-62
2022/09/05 09:10:52;;;;;;;7.95;6.63;;;26.20;61.90;;;;;;5043147;28;20524;-63
2022/09/05 09:13:51;;;;;;;9.23;6.68;;;26.00;62.70;;;;;;5052898;28;20111;-63
2022/09/05 09:16:28;;;;;;;7.78;5.55;;;26.10;62.60;;;;;;5050862;28;20457;-62
2022/09/05 09:19:07;;;;;;;7.10;5.90;;;26.30;62.90;;;;;;5049689;28;20072;-64
2022/09/05 09:21:46;;;;;;;6.63;5.13;;;26.40;61.80;;;;;;5049858;28;20122;-64
2022/09/05 09:25:02;;;;;;;7.95;5.15;;;26.30;62.10;;;;;;5051094;28;20342;-64
2022/09/05 09:28:04;;;;;;;5.07;4.57;;;26.40;62.20;;;;;;4997536;28;20050;-63
2022/09/05 09:30:32;;;;;;;5.80;4.97;;;26.40;62.10;;;;;;5050927;28;20456;-64
2022/09/05 09:33:02;;;;;;;6.90;5.10;;;26.40;62.30;;;;;;5050404;28;20041;-65
2022/09/05 09:35:52;;;;;;;5.47;4.70;;;26.50;61.70;;;;;;5050141;28;20468;-63
2022/09/05 09:38:27;;;;;;;9.35;5.32;;;26.20;62.30;;;;;;5050975;28;20036;-64
2022/09/05 09:41:17;;;;;;;7.00;5.22;;;26.30;62.60;;;;;;5050174;28;20059;-64
2022/09/05 09:43:46;;;;;;;6.47;5.00;;;26.20;62.40;;;;;;5048653;28;20036;-64
2022/09/05 09:46:16;;;;;;;7.90;5.07;;;26.20;62.20;;;;;;5047103;28;20056;-63
2022/09/05 09:48:48;;;;;;;7.53;5.60;;;26.20;62.20;;;;;;5045728;28;20803;-64
2022/09/05 09:51:38;;;;;;;6.72;4.85;;;26.20;61.90;;;;;;5040653;28;20048;-64
2022/09/05 09:54:19;;;;;;;6.50;5.07;;;26.10;62.40;;;;;;5045720;28;20037;-64
2022/09/05 09:57:18;;;;;;;6.97;4.15;;;26.20;62.90;;;;;;5046995;28;20045;-64
2022/09/05 10:00:19;;;;;;;8.38;4.50;;;26.50;61.40;;;;;;5047465;28;20040;-66
2022/09/05 10:02:58;;;;;;;6.82;4.43;;;26.70;61.30;;;;;;5053422;28;20037;-64
2022/09/05 10:05:31;;;;;;;4.32;3.85;;;26.70;60.60;;;;;;5042876;28;20167;-65
2022/09/05 10:08:41;;;;;;;7.18;4.18;;;26.70;60.80;;;;;;5047013;28;20040;-65
2022/09/05 10:11:28;;;;;;;8.10;4.13;;;26.50;60.70;;;;;;5042841;28;20041;-65
2022/09/05 10:14:11;;;;;;;5.18;3.90;;;26.70;59.90;;;;;;5046704;28;20037;-65
2022/09/05 10:16:55;;;;;;;7.82;3.95;;;26.60;60.20;;;;;;5043671;28;20041;-64
2022/09/05 10:19:39;;;;;;;3.92;3.53;;;26.60;60.10;;;;;;5045299;28;20041;-65
2022/09/05 10:22:28;;;;;;;5.97;3.38;;;26.70;60.10;;;;;;5044702;28;20077;-64
2022/09/05 10:25:18;;;;;;;4.13;3.70;;;26.80;60.10;;;;;;5049731;28;20659;-63
2022/09/05 10:28:01;;;;;;;6.15;3.78;;;26.90;59.60;;;;;;5050244;28;20115;-64
2022/09/05 10:30:59;;;;;;;9.40;4.53;;;26.80;58.90;;;;;;5041142;28;20094;-63
2022/09/05 10:33:50;;;;;;;4.82;3.58;;;26.80;58.90;;;;;;5008688;28;20127;-63
2022/09/05 10:36:25;;;;;;;4.32;3.60;;;26.80;59.60;;;;;;5048103;28;20697;-64
2022/09/05 10:39:16;;;;;;;4.50;3.42;;;26.80;59.40;;;;;;5047931;28;20067;-64
2022/09/05 10:41:50;;;;;;;5.90;3.50;;;26.70;59.40;;;;;;5049009;28;20040;-63
2022/09/05 10:44:39;;;;;;;4.55;3.60;;;26.90;59.60;;;;;;5046150;28;20135;-63
2022/09/05 10:47:13;;;;;;;5.05;3.25;;;26.90;59.40;;;;;;5049616;28;20043;-63
2022/09/05 10:49:47;;;;;;;4.60;3.83;;;27.00;59.70;;;;;;5048150;28;20119;-64
2022/09/05 10:52:15;;;;;;;4.88;3.58;;;27.10;58.70;;;;;;5046225;28;20051;-64
2022/09/05 10:54:56;;;;;;;4.05;3.45;;;27.10;58.90;;;;;;5044685;28;20421;-64
2022/09/05 10:57:37;;;;;;;4.05;3.65;;;27.00;58.70;;;;;;5043897;28;20088;-64
2022/09/05 11:00:09;;;;;;;;;;;27.20;58.70;;;;;;5052076;28;20041;-64
2022/09/05 11:02:40;;;;;;;4.55;3.40;;;27.10;58.30;;;;;;5053098;28;20008;-63
2022/09/05 11:05:29;;;;;;;4.60;3.08;;;27.10;58.40;;;;;;5038658;28;20045;-65
2022/09/05 11:08:06;;;;;;;3.60;3.30;;;27.10;58.30;;;;;;5043642;28;20045;-64
2022/09/05 11:10:34;;;;;;;4.45;3.70;;;27.10;58.30;;;;;;5052150;28;20053;-64
2022/09/05 11:13:22;;;;;;;5.15;3.13;;;27.00;58.20;;;;;;5052844;28;20041;-63
2022/09/05 11:16:13;;;;;;;4.20;2.90;;;27.00;58.30;;;;;;5051783;28;20157;-63
2022/09/05 11:18:52;;;;;;;4.00;3.40;;;27.10;58.30;;;;;;5047718;28;20380;-64
2022/09/05 11:21:26;;;;;;;9.32;3.47;;;27.20;58.30;;;;;;5044201;28;20038;-64
2022/09/05 11:23:57;;;;;;;5.05;3.35;;;27.10;57.80;;;;;;5047073;28;20037;-65
2022/09/05 11:26:34;;;;;;;3.55;3.25;;;27.10;57.70;;;;;;5047494;28;20064;-64
2022/09/05 11:29:09;;;;;;;3.83;3.22;;;27.20;57.40;;;;;;5041357;28;20128;-64
2022/09/05 11:31:48;;;;;;;3.97;3.10;;;27.30;57.50;;;;;;5041243;28;20052;-65
2022/09/05 11:34:48;;;;;;;4.10;3.60;;;27.40;57.20;;;;;;5039960;28;20578;-66
2022/09/05 11:37:33;;;;;;;5.80;3.60;;;27.50;57.50;;;;;;5047429;28;20539;-64
2022/09/05 11:40:18;;;;;;;3.50;3.20;;;27.50;56.30;;;;;;5055641;28;20084;-65
2022/09/05 11:43:14;;;;;;;3.50;3.17;;;27.50;56.60;;;;;;5047852;28;20514;-65
2022/09/05 11:46:04;;;;;;;4.03;2.78;;;27.50;56.30;;;;;;5045891;28;20124;-65
2022/09/05 11:49:00;;;;;;;4.72;2.92;;;27.60;56.00;;;;;;5050601;28;20126;-64
2022/09/05 11:51:56;;;;;;;3.55;2.53;;;27.70;55.60;;;;;;5045420;28;20680;-64
2022/09/05 11:54:44;;;;;;;3.33;2.70;;;27.90;54.90;;;;;;5047970;28;20036;-64
2022/09/05 11:57:16;;;;;;;4.78;2.72;;;27.90;54.50;;;;;;5044734;28;20036;-65
2022/09/05 11:59:59;;;;;;;4.25;2.92;;;27.90;54.90;;;;;;5046184;28;20041;-64
2022/09/05 12:03:13;;;;;;;3.33;2.60;;;27.90;55.20;;;;;;5048524;28;20052;-65
2022/09/05 12:06:07;;;;;;;5.95;3.20;;;28.10;54.10;;;;;;5045750;28;20033;-63
2022/09/05 12:09:00;;;;;;;5.13;2.70;;;28.10;54.70;;;;;;5045909;28;20503;-63
2022/09/05 12:12:05;;;;;;;3.13;2.70;;;28.00;54.30;;;;;;5047066;28;20138;-63
2022/09/05 12:14:37;;;;;;;5.20;2.35;;;28.00;54.20;;;;;;5047153;28;20044;-64
2022/09/05 12:17:09;;;;;;;4.32;2.70;;;28.20;53.90;;;;;;5044464;28;20052;-65
2022/09/05 12:19:46;;;;;;;4.03;2.80;;;28.40;53.70;;;;;;5046962;28;20036;-64
2022/09/05 12:22:28;;;;;;;3.50;2.38;;;28.30;53.20;;;;;;5027902;28;20049;-64
2022/09/05 12:25:27;;;;;;;5.25;2.80;;;28.40;52.90;;;;;;5036937;28;20477;-64
2022/09/05 12:27:58;;;;;;;3.92;2.50;;;28.40;53.70;;;;;;5046849;28;20032;-65
2022/09/05 12:30:28;;;;;;;3.67;2.83;;;28.70;53.50;;;;;;5039490;28;20083;-63
2022/09/05 12:33:09;;;;;;;5.03;2.50;;;28.90;52.90;;;;;;5048178;28;20047;-64
2022/09/05 12:35:50;;;;;;;4.75;3.35;;;29.00;52.60;;;;;;5043185;28;20067;-63
2022/09/05 12:38:39;;;;;;;2.78;2.30;;;28.90;51.40;;;;;;5039656;28;20051;-63
2022/09/05 12:41:20;;;;;;;3.20;2.67;;;29.00;52.10;;;;;;5046449;28;20049;-63
2022/09/05 12:44:07;;;;;;;3.58;2.30;;;29.30;51.60;;;;;;5048454;28;21668;-62
2022/09/05 12:46:55;;;;;;;2.70;2.45;;;29.10;50.90;;;;;;5048002;28;20487;-64
2022/09/05 12:49:48;;;;;;;3.30;2.50;;;28.90;51.60;;;;;;5031129;28;20128;-63
2022/09/05 12:52:20;;;;;;;3.88;2.15;;;29.90;50.10;;;;;;5045983;28;20045;-62
2022/09/05 12:54:53;;;;;;;2.42;2.22;;;31.80;48.80;;;;;;5029041;28;20127;-62
2022/09/05 12:57:29;;;;;;;4.15;2.47;;;33.40;46.50;;;;;;5043717;28;20044;-62
2022/09/05 12:59:57;;;;;;;2.55;2.28;;;35.00;44.90;;;;;;5047031;28;20078;-63
2022/09/05 13:02:28;;;;;;;4.13;2.50;;;35.80;42.30;;;;;;5042465;28;20514;-63
2022/09/05 13:05:00;;;;;;;2.78;2.10;;;37.10;40.10;;;;;;5041898;28;20116;-62
2022/09/05 13:07:41;;;;;;;2.38;2.17;;;36.00;39.30;;;;;;5046548;28;20068;-62
2022/09/05 13:10:13;;;;;;;3.30;1.98;;;36.00;39.20;;;;;;5043857;28;20049;-62
2022/09/05 13:12:46;;;;;;;2.72;2.33;;;34.10;39.80;;;;;;5047167;28;20044;-61
2022/09/05 13:15:15;;;;;;;2.85;2.50;;;32.90;42.20;;;;;;5045187;28;20041;-61
2022/09/05 13:17:50;;;;;;;2.67;2.43;;;31.90;43.00;;;;;;5035455;28;20132;-62
2022/09/05 13:20:35;;;;;;;5.40;2.17;;;31.20;44.60;;;;;;5042284;28;20048;-62
2022/09/05 13:23:26;;;;;;;2.60;2.08;;;31.40;44.30;;;;;;5043145;28;20055;-62
2022/09/05 13:26:04;;;;;;;3.25;2.15;;;32.10;44.70;;;;;;5044891;28;20124;-62
2022/09/05 13:28:55;;;;;;;2.63;2.22;;;33.60;42.50;;;;;;5046684;28;20357;-62
2022/09/05 13:31:41;;;;;;;4.00;2.30;;;34.40;42.10;;;;;;5035197;28;20324;-61
2022/09/05 13:34:21;;;;;;;3.78;2.42;;;34.10;40.70;;;;;;5032700;28;20045;-62
2022/09/05 13:37:05;;;;;;;1.92;1.83;;;33.70;40.90;;;;;;5043074;28;20126;-60
2022/09/05 13:39:40;;;;;;;3.08;1.90;;;35.00;41.20;;;;;;5047030;28;20526;-62
2022/09/05 13:42:11;;;;;;;3.28;2.15;;;36.90;39.30;;;;;;5047083;28;20037;-63
2022/09/05 13:44:42;;;;;;;3.13;2.20;;;38.00;38.40;;;;;;5043794;28;20093;-62
2022/09/05 13:47:29;;;;;;;3.03;2.10;;;38.10;37.90;;;;;;5038111;28;20066;-61
2022/09/05 13:50:28;;;;;;;7.28;2.00;;;36.10;37.10;;;;;;5040121;28;20047;-62
2022/09/05 13:53:01;;;;;;;3.92;2.35;;;34.80;38.60;;;;;;5043057;28;20065;-61
2022/09/05 13:55:36;;;;;;;3.15;2.05;;;33.60;40.50;;;;;;5044165;28;20099;-61
2022/09/05 13:58:17;;;;;;;3.85;2.30;;;32.80;40.90;;;;;;5046640;28;20041;-60
2022/09/05 14:01:05;;;;;;;3.38;2.20;;;32.10;41.90;;;;;;5047238;28;20033;-61
2022/09/05 14:03:42;;;;;;;4.57;2.47;;;31.30;42.80;;;;;;5049460;28;20041;-61
2022/09/05 14:06:36;;;;;;;2.88;2.60;;;30.90;43.90;;;;;;5048247;28;20037;-61